sensor_id;sensor_type;location;lat;lon;timestamp;P1;durP1;ratioP1;P2;durP2;ratioP2
4601;SDS011;2313;48.552;9.370;2024-03-08T00:02:23;30.23;;;17.30;;
4601;SDS011;2313;48.552;9.370;2024-03-08T00:04:49;29.53;;;16.93;;
4601;SDS011;2313;48.552;9.370;2024-03-08T00:07:14;28.60;;;17.40;;
4601;SDS011;2313;48.552;9.370;2024-03-08T00:09:40;35.43;;;16.70;;
4601;SDS011;2313;48.552;9.370;2024-03-08T00:12:06;32.40;;;17.43;;
4601;SDS011;2313;48.552;9.370;2024-03-08T00:14:31;29.90;;;17.33;;
4601;SDS011;2313;48.552;9.370;2024-03-08T00:16:58;28.77;;;17.23;;
4601;SDS011;2313;48.552;9.370;2024-03-08T00:19:23;32.07;;;17.30;;
4601;SDS011;2313;48.552;9.370;2024-03-08T00:21:49;26.93;;;16.17;;
4601;SDS011;2313;48.552;9.370;2024-03-08T00:24:15;31.17;;;18.93;;
4601;SDS011;2313;48.552;9.370;2024-03-08T00:26:40;34.80;;;17.33;;
4601;SDS011;2313;48.552;9.370;2024-03-08T00:29:07;34.08;;;19.55;;
4601;SDS011;2313;48.552;9.370;2024-03-08T00:31:32;29.93;;;18.60;;
4601;SDS011;2313;48.552;9.370;2024-03-08T00:33:58;33.13;;;17.80;;
4601;SDS011;2313;48.552;9.370;2024-03-08T00:36:24;31.55;;;17.23;;
4601;SDS011;2313;48.552;9.370;2024-03-08T00:38:50;28.63;;;17.40;;
4601;SDS011;2313;48.552;9.370;2024-03-08T00:41:15;26.60;;;16.70;;
4601;SDS011;2313;48.552;9.370;2024-03-08T00:43:41;27.87;;;16.43;;
4601;SDS011;2313;48.552;9.370;2024-03-08T00:46:07;27.53;;;16.97;;
4601;SDS011;2313;48.552;9.370;2024-03-08T00:48:32;29.20;;;17.27;;
4601;SDS011;2313;48.552;9.370;2024-03-08T00:50:58;28.10;;;16.80;;
4601;SDS011;2313;48.552;9.370;2024-03-08T00:53:24;25.57;;;16.47;;
4601;SDS011;2313;48.552;9.370;2024-03-08T00:55:49;26.10;;;15.80;;
4601;SDS011;2313;48.552;9.370;2024-03-08T00:58:15;26.43;;;16.93;;
4601;SDS011;2313;48.552;9.370;2024-03-08T01:00:40;28.27;;;17.03;;
4601;SDS011;2313;48.552;9.370;2024-03-08T01:03:06;23.97;;;14.30;;
4601;SDS011;2313;48.552;9.370;2024-03-08T01:05:32;30.43;;;15.20;;
4601;SDS011;2313;48.552;9.370;2024-03-08T01:07:58;29.13;;;16.88;;
4601;SDS011;2313;48.552;9.370;2024-03-08T01:10:24;26.97;;;15.70;;
4601;SDS011;2313;48.552;9.370;2024-03-08T01:12:49;26.60;;;15.43;;
4601;SDS011;2313;48.552;9.370;2024-03-08T01:15:15;25.90;;;15.70;;
4601;SDS011;2313;48.552;9.370;2024-03-08T01:17:41;26.43;;;16.10;;
4601;SDS011;2313;48.552;9.370;2024-03-08T01:20:09;21.30;;;14.30;;
4601;SDS011;2313;48.552;9.370;2024-03-08T01:22:37;22.35;;;14.95;;
4601;SDS011;2313;48.552;9.370;2024-03-08T01:25:03;26.95;;;16.95;;
4601;SDS011;2313;48.552;9.370;2024-03-08T01:27:29;28.83;;;17.05;;
4601;SDS011;2313;48.552;9.370;2024-03-08T01:29:56;26.42;;;16.67;;
4601;SDS011;2313;48.552;9.370;2024-03-08T01:32:21;28.07;;;16.33;;
4601;SDS011;2313;48.552;9.370;2024-03-08T01:34:48;28.23;;;16.35;;
4601;SDS011;2313;48.552;9.370;2024-03-08T01:37:14;26.70;;;16.10;;
4601;SDS011;2313;48.552;9.370;2024-03-08T01:39:39;26.73;;;17.03;;
4601;SDS011;2313;48.552;9.370;2024-03-08T01:42:05;28.20;;;15.53;;
4601;SDS011;2313;48.552;9.370;2024-03-08T01:44:31;23.63;;;15.40;;
4601;SDS011;2313;48.552;9.370;2024-03-08T01:46:56;28.80;;;16.70;;
4601;SDS011;2313;48.552;9.370;2024-03-08T01:49:22;28.90;;;17.77;;
4601;SDS011;2313;48.552;9.370;2024-03-08T01:51:50;26.23;;;17.02;;
4601;SDS011;2313;48.552;9.370;2024-03-08T01:54:16;25.83;;;14.97;;
4601;SDS011;2313;48.552;9.370;2024-03-08T01:56:45;25.48;;;16.23;;
4601;SDS011;2313;48.552;9.370;2024-03-08T01:59:11;26.25;;;15.32;;
4601;SDS011;2313;48.552;9.370;2024-03-08T02:01:37;24.67;;;16.05;;
4601;SDS011;2313;48.552;9.370;2024-03-08T02:04:03;26.37;;;16.87;;
4601;SDS011;2313;48.552;9.370;2024-03-08T02:06:31;28.02;;;15.50;;
4601;SDS011;2313;48.552;9.370;2024-03-08T02:08:56;25.83;;;15.80;;
4601;SDS011;2313;48.552;9.370;2024-03-08T02:11:22;25.38;;;15.90;;
4601;SDS011;2313;48.552;9.370;2024-03-08T02:13:48;23.93;;;14.77;;
4601;SDS011;2313;48.552;9.370;2024-03-08T02:16:19;36.57;;;17.67;;
4601;SDS011;2313;48.552;9.370;2024-03-08T02:18:46;25.75;;;14.73;;
4601;SDS011;2313;48.552;9.370;2024-03-08T02:21:11;31.47;;;17.50;;
4601;SDS011;2313;48.552;9.370;2024-03-08T02:23:38;25.98;;;16.20;;
4601;SDS011;2313;48.552;9.370;2024-03-08T02:26:05;25.48;;;14.50;;
4601;SDS011;2313;48.552;9.370;2024-03-08T02:28:32;28.90;;;16.48;;
4601;SDS011;2313;48.552;9.370;2024-03-08T02:30:59;27.00;;;15.52;;
4601;SDS011;2313;48.552;9.370;2024-03-08T02:33:25;26.40;;;15.17;;
4601;SDS011;2313;48.552;9.370;2024-03-08T02:35:51;29.70;;;16.08;;
4601;SDS011;2313;48.552;9.370;2024-03-08T02:38:18;26.50;;;15.93;;
4601;SDS011;2313;48.552;9.370;2024-03-08T02:40:46;27.15;;;16.52;;
4601;SDS011;2313;48.552;9.370;2024-03-08T02:43:12;27.90;;;16.17;;
4601;SDS011;2313;48.552;9.370;2024-03-08T02:45:39;27.38;;;16.02;;
4601;SDS011;2313;48.552;9.370;2024-03-08T02:48:06;28.30;;;16.60;;
4601;SDS011;2313;48.552;9.370;2024-03-08T02:50:32;27.25;;;17.05;;
4601;SDS011;2313;48.552;9.370;2024-03-08T02:53:00;28.80;;;15.88;;
4601;SDS011;2313;48.552;9.370;2024-03-08T02:55:25;27.98;;;16.52;;
4601;SDS011;2313;48.552;9.370;2024-03-08T02:57:52;30.30;;;17.17;;
4601;SDS011;2313;48.552;9.370;2024-03-08T03:00:19;29.30;;;15.40;;
4601;SDS011;2313;48.552;9.370;2024-03-08T03:02:46;28.48;;;17.50;;
4601;SDS011;2313;48.552;9.370;2024-03-08T03:05:12;30.00;;;17.00;;
4601;SDS011;2313;48.552;9.370;2024-03-08T03:07:38;28.30;;;15.97;;
4601;SDS011;2313;48.552;9.370;2024-03-08T03:10:03;27.70;;;17.53;;
4601;SDS011;2313;48.552;9.370;2024-03-08T03:12:30;31.00;;;16.67;;
4601;SDS011;2313;48.552;9.370;2024-03-08T03:14:56;30.42;;;16.05;;
4601;SDS011;2313;48.552;9.370;2024-03-08T03:17:23;25.15;;;16.52;;
4601;SDS011;2313;48.552;9.370;2024-03-08T03:19:49;26.67;;;15.27;;
4601;SDS011;2313;48.552;9.370;2024-03-08T03:22:16;27.58;;;15.55;;
4601;SDS011;2313;48.552;9.370;2024-03-08T03:24:43;23.30;;;15.93;;
4601;SDS011;2313;48.552;9.370;2024-03-08T03:27:09;27.27;;;16.05;;
4601;SDS011;2313;48.552;9.370;2024-03-08T03:29:40;27.95;;;15.98;;
4601;SDS011;2313;48.552;9.370;2024-03-08T03:32:14;29.77;;;18.00;;
4601;SDS011;2313;48.552;9.370;2024-03-08T03:34:41;25.23;;;15.77;;
4601;SDS011;2313;48.552;9.370;2024-03-08T03:37:08;31.52;;;17.13;;
4601;SDS011;2313;48.552;9.370;2024-03-08T03:39:37;27.73;;;16.33;;
4601;SDS011;2313;48.552;9.370;2024-03-08T03:42:17;26.23;;;15.88;;
4601;SDS011;2313;48.552;9.370;2024-03-08T03:44:46;26.10;;;16.48;;
4601;SDS011;2313;48.552;9.370;2024-03-08T03:47:13;31.73;;;17.20;;
4601;SDS011;2313;48.552;9.370;2024-03-08T03:49:39;26.33;;;15.40;;
4601;SDS011;2313;48.552;9.370;2024-03-08T03:52:09;28.95;;;17.08;;
4601;SDS011;2313;48.552;9.370;2024-03-08T03:54:35;31.83;;;16.88;;
4601;SDS011;2313;48.552;9.370;2024-03-08T03:57:01;26.60;;;14.73;;
4601;SDS011;2313;48.552;9.370;2024-03-08T03:59:27;26.95;;;16.20;;
4601;SDS011;2313;48.552;9.370;2024-03-08T04:01:53;28.40;;;15.27;;
4601;SDS011;2313;48.552;9.370;2024-03-08T04:04:19;28.53;;;16.60;;
4601;SDS011;2313;48.552;9.370;2024-03-08T04:06:45;27.05;;;16.17;;
4601;SDS011;2313;48.552;9.370;2024-03-08T04:09:11;28.13;;;16.63;;
4601;SDS011;2313;48.552;9.370;2024-03-08T04:11:37;30.65;;;17.42;;
4601;SDS011;2313;48.552;9.370;2024-03-08T04:14:03;28.92;;;16.02;;
4601;SDS011;2313;48.552;9.370;2024-03-08T04:16:30;30.98;;;17.95;;
4601;SDS011;2313;48.552;9.370;2024-03-08T04:18:56;33.28;;;18.42;;
4601;SDS011;2313;48.552;9.370;2024-03-08T04:21:22;28.20;;;17.60;;
4601;SDS011;2313;48.552;9.370;2024-03-08T04:23:48;29.10;;;17.03;;
4601;SDS011;2313;48.552;9.370;2024-03-08T04:26:13;27.73;;;15.40;;
4601;SDS011;2313;48.552;9.370;2024-03-08T04:28:39;28.27;;;16.57;;
4601;SDS011;2313;48.552;9.370;2024-03-08T04:31:04;26.00;;;15.50;;
4601;SDS011;2313;48.552;9.370;2024-03-08T04:33:31;29.75;;;16.27;;
4601;SDS011;2313;48.552;9.370;2024-03-08T04:35:57;28.20;;;16.43;;
4601;SDS011;2313;48.552;9.370;2024-03-08T04:38:23;27.13;;;17.40;;
4601;SDS011;2313;48.552;9.370;2024-03-08T04:40:49;29.33;;;16.23;;
4601;SDS011;2313;48.552;9.370;2024-03-08T04:43:15;31.30;;;17.73;;
4601;SDS011;2313;48.552;9.370;2024-03-08T04:45:43;32.20;;;16.50;;
4601;SDS011;2313;48.552;9.370;2024-03-08T04:48:09;24.75;;;15.52;;
4601;SDS011;2313;48.552;9.370;2024-03-08T04:50:35;28.40;;;17.00;;
4601;SDS011;2313;48.552;9.370;2024-03-08T04:53:00;29.43;;;16.57;;
4601;SDS011;2313;48.552;9.370;2024-03-08T04:55:26;29.13;;;17.77;;
4601;SDS011;2313;48.552;9.370;2024-03-08T04:57:51;27.10;;;16.57;;
4601;SDS011;2313;48.552;9.370;2024-03-08T05:00:18;32.60;;;17.08;;
4601;SDS011;2313;48.552;9.370;2024-03-08T05:02:44;32.17;;;17.90;;
4601;SDS011;2313;48.552;9.370;2024-03-08T05:05:09;27.40;;;16.77;;
4601;SDS011;2313;48.552;9.370;2024-03-08T05:07:38;26.38;;;17.20;;
4601;SDS011;2313;48.552;9.370;2024-03-08T05:10:05;23.95;;;15.05;;
4601;SDS011;2313;48.552;9.370;2024-03-08T05:12:31;29.08;;;16.80;;
4601;SDS011;2313;48.552;9.370;2024-03-08T05:14:58;27.60;;;16.40;;
4601;SDS011;2313;48.552;9.370;2024-03-08T05:17:23;28.50;;;16.23;;
4601;SDS011;2313;48.552;9.370;2024-03-08T05:19:49;25.70;;;16.07;;
4601;SDS011;2313;48.552;9.370;2024-03-08T05:22:15;28.73;;;15.90;;
4601;SDS011;2313;48.552;9.370;2024-03-08T05:24:42;31.15;;;17.02;;
4601;SDS011;2313;48.552;9.370;2024-03-08T05:27:07;23.80;;;14.10;;
4601;SDS011;2313;48.552;9.370;2024-03-08T05:29:33;33.10;;;18.20;;
4601;SDS011;2313;48.552;9.370;2024-03-08T05:31:58;27.80;;;16.10;;
4601;SDS011;2313;48.552;9.370;2024-03-08T05:34:24;25.50;;;16.37;;
4601;SDS011;2313;48.552;9.370;2024-03-08T05:36:51;38.63;;;22.02;;
4601;SDS011;2313;48.552;9.370;2024-03-08T05:39:17;26.10;;;15.63;;
4601;SDS011;2313;48.552;9.370;2024-03-08T05:41:43;25.75;;;15.32;;
4601;SDS011;2313;48.552;9.370;2024-03-08T05:44:09;28.17;;;15.93;;
4601;SDS011;2313;48.552;9.370;2024-03-08T05:46:36;28.40;;;17.33;;
4601;SDS011;2313;48.552;9.370;2024-03-08T05:49:05;28.50;;;17.52;;
4601;SDS011;2313;48.552;9.370;2024-03-08T05:51:32;29.15;;;16.00;;
4601;SDS011;2313;48.552;9.370;2024-03-08T05:54:01;34.08;;;16.88;;
4601;SDS011;2313;48.552;9.370;2024-03-08T05:56:28;26.08;;;16.48;;
4601;SDS011;2313;48.552;9.370;2024-03-08T05:58:54;25.98;;;15.93;;
4601;SDS011;2313;48.552;9.370;2024-03-08T06:01:19;28.60;;;17.00;;
4601;SDS011;2313;48.552;9.370;2024-03-08T06:03:45;27.93;;;16.63;;
4601;SDS011;2313;48.552;9.370;2024-03-08T06:06:12;26.35;;;17.00;;
4601;SDS011;2313;48.552;9.370;2024-03-08T06:08:38;27.35;;;16.73;;
4601;SDS011;2313;48.552;9.370;2024-03-08T06:11:04;27.73;;;16.02;;
4601;SDS011;2313;48.552;9.370;2024-03-08T06:13:31;29.73;;;17.55;;
4601;SDS011;2313;48.552;9.370;2024-03-08T06:15:58;27.83;;;16.67;;
4601;SDS011;2313;48.552;9.370;2024-03-08T06:18:25;27.27;;;16.50;;
4601;SDS011;2313;48.552;9.370;2024-03-08T06:20:51;29.03;;;17.50;;
4601;SDS011;2313;48.552;9.370;2024-03-08T06:23:17;28.02;;;17.05;;
4601;SDS011;2313;48.552;9.370;2024-03-08T06:25:46;29.10;;;17.67;;
4601;SDS011;2313;48.552;9.370;2024-03-08T06:28:12;27.75;;;17.15;;
4601;SDS011;2313;48.552;9.370;2024-03-08T06:30:39;27.25;;;15.65;;
4601;SDS011;2313;48.552;9.370;2024-03-08T06:33:05;26.90;;;16.87;;
4601;SDS011;2313;48.552;9.370;2024-03-08T06:35:30;29.60;;;17.33;;
4601;SDS011;2313;48.552;9.370;2024-03-08T06:37:57;27.55;;;15.70;;
4601;SDS011;2313;48.552;9.370;2024-03-08T06:40:23;23.63;;;14.20;;
4601;SDS011;2313;48.552;9.370;2024-03-08T06:42:48;28.47;;;16.40;;
4601;SDS011;2313;48.552;9.370;2024-03-08T06:45:17;31.80;;;15.77;;
4601;SDS011;2313;48.552;9.370;2024-03-08T06:47:45;25.38;;;15.82;;
4601;SDS011;2313;48.552;9.370;2024-03-08T06:50:11;24.30;;;13.93;;
4601;SDS011;2313;48.552;9.370;2024-03-08T06:52:37;24.03;;;14.97;;
4601;SDS011;2313;48.552;9.370;2024-03-08T06:55:04;24.38;;;15.95;;
4601;SDS011;2313;48.552;9.370;2024-03-08T06:57:30;30.80;;;17.35;;
4601;SDS011;2313;48.552;9.370;2024-03-08T06:59:56;26.23;;;15.50;;
4601;SDS011;2313;48.552;9.370;2024-03-08T07:02:24;27.10;;;15.75;;
4601;SDS011;2313;48.552;9.370;2024-03-08T07:04:50;28.63;;;15.87;;
4601;SDS011;2313;48.552;9.370;2024-03-08T07:07:17;28.83;;;16.08;;
4601;SDS011;2313;48.552;9.370;2024-03-08T07:09:45;22.23;;;13.88;;
4601;SDS011;2313;48.552;9.370;2024-03-08T07:12:11;24.77;;;14.00;;
4601;SDS011;2313;48.552;9.370;2024-03-08T07:14:38;23.40;;;14.43;;
4601;SDS011;2313;48.552;9.370;2024-03-08T07:17:10;26.75;;;16.05;;
4601;SDS011;2313;48.552;9.370;2024-03-08T07:19:36;27.45;;;14.90;;
4601;SDS011;2313;48.552;9.370;2024-03-08T07:22:03;21.50;;;14.68;;
4601;SDS011;2313;48.552;9.370;2024-03-08T07:24:30;22.02;;;13.70;;
4601;SDS011;2313;48.552;9.370;2024-03-08T07:27:05;22.85;;;13.73;;
4601;SDS011;2313;48.552;9.370;2024-03-08T07:29:31;23.00;;;13.97;;
4601;SDS011;2313;48.552;9.370;2024-03-08T07:32:00;23.98;;;13.43;;
4601;SDS011;2313;48.552;9.370;2024-03-08T07:34:25;22.03;;;13.47;;
4601;SDS011;2313;48.552;9.370;2024-03-08T07:36:51;23.27;;;14.47;;
4601;SDS011;2313;48.552;9.370;2024-03-08T07:39:17;25.33;;;14.63;;
4601;SDS011;2313;48.552;9.370;2024-03-08T07:41:43;24.10;;;14.30;;
4601;SDS011;2313;48.552;9.370;2024-03-08T07:44:09;23.43;;;14.27;;
4601;SDS011;2313;48.552;9.370;2024-03-08T07:46:35;25.63;;;15.65;;
4601;SDS011;2313;48.552;9.370;2024-03-08T07:49:02;21.88;;;13.52;;
4601;SDS011;2313;48.552;9.370;2024-03-08T07:51:28;20.77;;;13.52;;
4601;SDS011;2313;48.552;9.370;2024-03-08T07:53:53;20.20;;;13.60;;
4601;SDS011;2313;48.552;9.370;2024-03-08T07:56:20;27.92;;;15.45;;
4601;SDS011;2313;48.552;9.370;2024-03-08T07:58:46;23.75;;;14.32;;
4601;SDS011;2313;48.552;9.370;2024-03-08T08:01:16;25.98;;;15.13;;
4601;SDS011;2313;48.552;9.370;2024-03-08T08:03:43;22.65;;;14.43;;
4601;SDS011;2313;48.552;9.370;2024-03-08T08:06:08;26.50;;;14.37;;
4601;SDS011;2313;48.552;9.370;2024-03-08T08:08:34;27.17;;;14.13;;
4601;SDS011;2313;48.552;9.370;2024-03-08T08:11:01;20.35;;;13.48;;
4601;SDS011;2313;48.552;9.370;2024-03-08T08:13:27;24.80;;;14.50;;
4601;SDS011;2313;48.552;9.370;2024-03-08T08:15:57;22.83;;;14.10;;
4601;SDS011;2313;48.552;9.370;2024-03-08T08:18:23;23.10;;;15.60;;
4601;SDS011;2313;48.552;9.370;2024-03-08T08:20:50;26.30;;;14.00;;
4601;SDS011;2313;48.552;9.370;2024-03-08T08:23:17;20.52;;;12.95;;
4601;SDS011;2313;48.552;9.370;2024-03-08T08:25:44;19.87;;;11.77;;
4601;SDS011;2313;48.552;9.370;2024-03-08T08:28:10;22.25;;;14.13;;
4601;SDS011;2313;48.552;9.370;2024-03-08T08:30:37;20.38;;;13.10;;
4601;SDS011;2313;48.552;9.370;2024-03-08T08:33:03;22.73;;;13.70;;
4601;SDS011;2313;48.552;9.370;2024-03-08T08:35:30;22.30;;;14.88;;
4601;SDS011;2313;48.552;9.370;2024-03-08T08:37:57;23.15;;;15.18;;
4601;SDS011;2313;48.552;9.370;2024-03-08T08:40:24;24.70;;;14.63;;
4601;SDS011;2313;48.552;9.370;2024-03-08T08:42:50;25.40;;;15.33;;
4601;SDS011;2313;48.552;9.370;2024-03-08T08:45:18;25.97;;;14.90;;
4601;SDS011;2313;48.552;9.370;2024-03-08T08:47:45;20.23;;;13.27;;
4601;SDS011;2313;48.552;9.370;2024-03-08T08:50:12;23.30;;;15.00;;
4601;SDS011;2313;48.552;9.370;2024-03-08T08:52:38;24.43;;;15.20;;
4601;SDS011;2313;48.552;9.370;2024-03-08T08:55:04;29.73;;;14.30;;
4601;SDS011;2313;48.552;9.370;2024-03-08T08:57:31;20.75;;;14.00;;
4601;SDS011;2313;48.552;9.370;2024-03-08T08:59:58;20.10;;;14.10;;
4601;SDS011;2313;48.552;9.370;2024-03-08T09:02:25;27.98;;;14.45;;
4601;SDS011;2313;48.552;9.370;2024-03-08T09:04:51;22.80;;;14.87;;
4601;SDS011;2313;48.552;9.370;2024-03-08T09:07:16;21.13;;;13.73;;
4601;SDS011;2313;48.552;9.370;2024-03-08T09:09:44;21.37;;;12.90;;
4601;SDS011;2313;48.552;9.370;2024-03-08T09:12:10;23.60;;;13.90;;
4601;SDS011;2313;48.552;9.370;2024-03-08T09:14:39;24.35;;;14.43;;
4601;SDS011;2313;48.552;9.370;2024-03-08T09:17:08;23.23;;;15.43;;
4601;SDS011;2313;48.552;9.370;2024-03-08T09:19:37;23.80;;;14.40;;
4601;SDS011;2313;48.552;9.370;2024-03-08T09:22:03;24.52;;;15.15;;
4601;SDS011;2313;48.552;9.370;2024-03-08T09:24:29;23.33;;;14.10;;
4601;SDS011;2313;48.552;9.370;2024-03-08T09:26:56;23.40;;;14.52;;
4601;SDS011;2313;48.552;9.370;2024-03-08T09:29:23;21.23;;;13.67;;
4601;SDS011;2313;48.552;9.370;2024-03-08T09:31:49;22.97;;;13.67;;
4601;SDS011;2313;48.552;9.370;2024-03-08T09:34:15;27.33;;;15.50;;
4601;SDS011;2313;48.552;9.370;2024-03-08T09:36:40;25.30;;;14.97;;
4601;SDS011;2313;48.552;9.370;2024-03-08T09:39:06;22.67;;;14.23;;
4601;SDS011;2313;48.552;9.370;2024-03-08T09:41:33;25.10;;;14.43;;
4601;SDS011;2313;48.552;9.370;2024-03-08T09:43:59;24.25;;;14.65;;
4601;SDS011;2313;48.552;9.370;2024-03-08T09:46:25;23.63;;;14.80;;
4601;SDS011;2313;48.552;9.370;2024-03-08T09:48:52;23.00;;;14.70;;
4601;SDS011;2313;48.552;9.370;2024-03-08T09:51:20;22.50;;;13.83;;
4601;SDS011;2313;48.552;9.370;2024-03-08T09:53:51;22.27;;;14.15;;
4601;SDS011;2313;48.552;9.370;2024-03-08T09:56:18;21.30;;;14.00;;
4601;SDS011;2313;48.552;9.370;2024-03-08T09:58:44;18.60;;;11.90;;
4601;SDS011;2313;48.552;9.370;2024-03-08T10:01:39;21.40;;;13.10;;
4601;SDS011;2313;48.552;9.370;2024-03-08T10:04:04;21.40;;;13.70;;
4601;SDS011;2313;48.552;9.370;2024-03-08T10:06:31;24.23;;;13.87;;
4601;SDS011;2313;48.552;9.370;2024-03-08T10:08:57;26.90;;;13.57;;
4601;SDS011;2313;48.552;9.370;2024-03-08T10:11:24;17.53;;;12.50;;
4601;SDS011;2313;48.552;9.370;2024-03-08T10:13:50;19.00;;;12.50;;
4601;SDS011;2313;48.552;9.370;2024-03-08T10:16:16;19.87;;;13.80;;
4601;SDS011;2313;48.552;9.370;2024-03-08T10:18:45;20.80;;;13.87;;
4601;SDS011;2313;48.552;9.370;2024-03-08T10:21:11;19.50;;;12.93;;
4601;SDS011;2313;48.552;9.370;2024-03-08T10:23:40;22.33;;;14.30;;
4601;SDS011;2313;48.552;9.370;2024-03-08T10:26:15;22.53;;;12.90;;
4601;SDS011;2313;48.552;9.370;2024-03-08T10:28:44;25.53;;;13.57;;
4601;SDS011;2313;48.552;9.370;2024-03-08T10:31:12;18.87;;;13.10;;
4601;SDS011;2313;48.552;9.370;2024-03-08T10:33:42;19.00;;;13.10;;
4601;SDS011;2313;48.552;9.370;2024-03-08T10:36:08;21.73;;;13.30;;
4601;SDS011;2313;48.552;9.370;2024-03-08T10:38:38;23.87;;;14.80;;
4601;SDS011;2313;48.552;9.370;2024-03-08T10:41:11;21.37;;;14.57;;
4601;SDS011;2313;48.552;9.370;2024-03-08T10:43:43;18.87;;;13.73;;
4601;SDS011;2313;48.552;9.370;2024-03-08T10:49:20;26.47;;;16.63;;
4601;SDS011;2313;48.552;9.370;2024-03-08T10:51:50;21.33;;;15.27;;
4601;SDS011;2313;48.552;9.370;2024-03-08T10:54:17;25.13;;;16.07;;
4601;SDS011;2313;48.552;9.370;2024-03-08T10:56:45;20.33;;;14.17;;
4601;SDS011;2313;48.552;9.370;2024-03-08T10:59:13;20.37;;;13.90;;
4601;SDS011;2313;48.552;9.370;2024-03-08T11:01:39;22.77;;;14.83;;
4601;SDS011;2313;48.552;9.370;2024-03-08T11:04:05;22.23;;;15.47;;
4601;SDS011;2313;48.552;9.370;2024-03-08T11:09:03;21.03;;;15.03;;
4601;SDS011;2313;48.552;9.370;2024-03-08T11:11:47;22.40;;;13.90;;
4601;SDS011;2313;48.552;9.370;2024-03-08T11:14:55;21.50;;;15.00;;
4601;SDS011;2313;48.552;9.370;2024-03-08T11:17:08;24.53;;;15.47;;
4601;SDS011;2313;48.552;9.370;2024-03-08T11:19:33;20.50;;;14.47;;
4601;SDS011;2313;48.552;9.370;2024-03-08T11:22:00;21.53;;;13.77;;
4601;SDS011;2313;48.552;9.370;2024-03-08T11:24:26;24.63;;;15.57;;
4601;SDS011;2313;48.552;9.370;2024-03-08T11:26:56;24.43;;;16.03;;
4601;SDS011;2313;48.552;9.370;2024-03-08T11:32:07;21.00;;;14.13;;
4601;SDS011;2313;48.552;9.370;2024-03-08T11:34:36;23.07;;;15.73;;
4601;SDS011;2313;48.552;9.370;2024-03-08T11:37:12;19.90;;;14.30;;
4601;SDS011;2313;48.552;9.370;2024-03-08T11:39:40;20.00;;;14.90;;
4601;SDS011;2313;48.552;9.370;2024-03-08T11:42:11;21.57;;;15.23;;
4601;SDS011;2313;48.552;9.370;2024-03-08T11:44:37;21.67;;;15.30;;
4601;SDS011;2313;48.552;9.370;2024-03-08T11:47:04;22.37;;;14.20;;
4601;SDS011;2313;48.552;9.370;2024-03-08T11:49:35;25.60;;;14.63;;
4601;SDS011;2313;48.552;9.370;2024-03-08T11:52:01;21.20;;;14.50;;
4601;SDS011;2313;48.552;9.370;2024-03-08T11:54:27;23.80;;;15.90;;
4601;SDS011;2313;48.552;9.370;2024-03-08T11:56:55;24.00;;;16.10;;
4601;SDS011;2313;48.552;9.370;2024-03-08T11:59:25;26.80;;;16.53;;
4601;SDS011;2313;48.552;9.370;2024-03-08T12:02:02;23.17;;;16.07;;
4601;SDS011;2313;48.552;9.370;2024-03-08T12:04:29;20.97;;;13.97;;
4601;SDS011;2313;48.552;9.370;2024-03-08T12:06:56;21.30;;;15.27;;
4601;SDS011;2313;48.552;9.370;2024-03-08T12:09:24;19.27;;;13.43;;
4601;SDS011;2313;48.552;9.370;2024-03-08T12:11:50;20.90;;;14.73;;
4601;SDS011;2313;48.552;9.370;2024-03-08T12:14:16;20.23;;;13.60;;
4601;SDS011;2313;48.552;9.370;2024-03-08T12:16:43;21.93;;;14.37;;
4601;SDS011;2313;48.552;9.370;2024-03-08T12:19:09;21.80;;;16.03;;
4601;SDS011;2313;48.552;9.370;2024-03-08T12:21:35;19.63;;;14.93;;
4601;SDS011;2313;48.552;9.370;2024-03-08T12:24:07;21.37;;;14.13;;
4601;SDS011;2313;48.552;9.370;2024-03-08T12:26:37;21.67;;;14.67;;
4601;SDS011;2313;48.552;9.370;2024-03-08T12:29:16;21.90;;;15.30;;
4601;SDS011;2313;48.552;9.370;2024-03-08T12:31:45;19.83;;;14.20;;
4601;SDS011;2313;48.552;9.370;2024-03-08T12:34:12;20.33;;;13.20;;
4601;SDS011;2313;48.552;9.370;2024-03-08T12:36:43;24.43;;;15.27;;
4601;SDS011;2313;48.552;9.370;2024-03-08T12:39:15;24.67;;;15.70;;
4601;SDS011;2313;48.552;9.370;2024-03-08T12:41:43;17.50;;;13.20;;
4601;SDS011;2313;48.552;9.370;2024-03-08T12:44:09;25.53;;;15.00;;
4601;SDS011;2313;48.552;9.370;2024-03-08T12:46:36;21.53;;;14.53;;
4601;SDS011;2313;48.552;9.370;2024-03-08T12:49:05;20.80;;;14.27;;
4601;SDS011;2313;48.552;9.370;2024-03-08T12:51:32;18.73;;;13.67;;
4601;SDS011;2313;48.552;9.370;2024-03-08T12:53:58;24.13;;;15.17;;
4601;SDS011;2313;48.552;9.370;2024-03-08T12:56:31;20.80;;;14.30;;
4601;SDS011;2313;48.552;9.370;2024-03-08T12:58:58;19.83;;;14.57;;
4601;SDS011;2313;48.552;9.370;2024-03-08T13:01:25;23.23;;;15.47;;
4601;SDS011;2313;48.552;9.370;2024-03-08T13:03:51;24.30;;;15.60;;
4601;SDS011;2313;48.552;9.370;2024-03-08T13:06:23;19.87;;;14.40;;
4601;SDS011;2313;48.552;9.370;2024-03-08T13:08:52;19.87;;;13.20;;
4601;SDS011;2313;48.552;9.370;2024-03-08T13:11:18;23.37;;;14.80;;
4601;SDS011;2313;48.552;9.370;2024-03-08T13:13:44;22.57;;;13.93;;
4601;SDS011;2313;48.552;9.370;2024-03-08T13:16:10;19.90;;;14.23;;
4601;SDS011;2313;48.552;9.370;2024-03-08T13:18:39;21.00;;;15.00;;
4601;SDS011;2313;48.552;9.370;2024-03-08T13:21:11;20.50;;;14.70;;
4601;SDS011;2313;48.552;9.370;2024-03-08T13:23:40;20.53;;;14.60;;
4601;SDS011;2313;48.552;9.370;2024-03-08T13:26:10;23.03;;;14.93;;
4601;SDS011;2313;48.552;9.370;2024-03-08T13:28:43;23.67;;;15.10;;
4601;SDS011;2313;48.552;9.370;2024-03-08T13:31:10;27.47;;;16.20;;
4601;SDS011;2313;48.552;9.370;2024-03-08T13:33:36;22.77;;;15.40;;
4601;SDS011;2313;48.552;9.370;2024-03-08T13:36:06;22.47;;;15.73;;
4601;SDS011;2313;48.552;9.370;2024-03-08T13:38:39;26.20;;;15.70;;
4601;SDS011;2313;48.552;9.370;2024-03-08T13:41:09;30.50;;;15.63;;
4601;SDS011;2313;48.552;9.370;2024-03-08T13:43:36;23.17;;;15.23;;
4601;SDS011;2313;48.552;9.370;2024-03-08T13:46:02;23.93;;;14.93;;
4601;SDS011;2313;48.552;9.370;2024-03-08T13:48:29;19.90;;;14.17;;
4601;SDS011;2313;48.552;9.370;2024-03-08T13:50:55;23.97;;;16.10;;
4601;SDS011;2313;48.552;9.370;2024-03-08T13:53:22;26.60;;;17.43;;
4601;SDS011;2313;48.552;9.370;2024-03-08T13:55:48;30.23;;;16.50;;
4601;SDS011;2313;48.552;9.370;2024-03-08T13:58:15;28.30;;;17.30;;
4601;SDS011;2313;48.552;9.370;2024-03-08T14:00:41;27.27;;;17.80;;
4601;SDS011;2313;48.552;9.370;2024-03-08T14:03:09;24.73;;;16.40;;
4601;SDS011;2313;48.552;9.370;2024-03-08T14:08:51;29.17;;;16.77;;
4601;SDS011;2313;48.552;9.370;2024-03-08T14:11:16;26.67;;;16.13;;
4601;SDS011;2313;48.552;9.370;2024-03-08T14:13:43;25.13;;;15.23;;
4601;SDS011;2313;48.552;9.370;2024-03-08T14:16:10;23.53;;;15.73;;
4601;SDS011;2313;48.552;9.370;2024-03-08T14:18:38;24.17;;;15.40;;
4601;SDS011;2313;48.552;9.370;2024-03-08T14:21:04;25.20;;;16.60;;
4601;SDS011;2313;48.552;9.370;2024-03-08T14:23:30;23.27;;;14.87;;
4601;SDS011;2313;48.552;9.370;2024-03-08T14:25:57;30.80;;;17.73;;
4601;SDS011;2313;48.552;9.370;2024-03-08T14:28:24;26.57;;;17.00;;
4601;SDS011;2313;48.552;9.370;2024-03-08T14:30:52;25.37;;;16.73;;
4601;SDS011;2313;48.552;9.370;2024-03-08T14:33:18;30.73;;;19.83;;
4601;SDS011;2313;48.552;9.370;2024-03-08T14:35:44;26.57;;;15.67;;
4601;SDS011;2313;48.552;9.370;2024-03-08T14:38:12;28.63;;;18.10;;
4601;SDS011;2313;48.552;9.370;2024-03-08T14:40:38;27.57;;;17.47;;
4601;SDS011;2313;48.552;9.370;2024-03-08T14:43:04;28.90;;;16.43;;
4601;SDS011;2313;48.552;9.370;2024-03-08T14:45:30;28.53;;;16.77;;
4601;SDS011;2313;48.552;9.370;2024-03-08T14:47:56;25.20;;;16.03;;
4601;SDS011;2313;48.552;9.370;2024-03-08T14:50:23;24.63;;;16.70;;
4601;SDS011;2313;48.552;9.370;2024-03-08T14:52:50;26.90;;;16.90;;
4601;SDS011;2313;48.552;9.370;2024-03-08T14:55:16;29.10;;;17.07;;
4601;SDS011;2313;48.552;9.370;2024-03-08T14:57:44;30.43;;;16.53;;
4601;SDS011;2313;48.552;9.370;2024-03-08T15:00:10;27.40;;;17.30;;